Vernicos Master — SVA2352 — position and weather

sailwx.info

Track history (hours):
 
Tides and Currents Weather Stations Pressure Air Temp Water Temp Dewpoint Dewpoint Depression Visibility Wind Speed Wind Dir Waves Ship Positions

Vernicos Master

Last reported at 2016-May-31 12:28 UTC. Time now 2016-May-31 16:11 UTC.
Position N 40°38' E 022°56'.

Length 28 m; draft 3.8 m.

Type: Tug. MMSI: 240917000.

Date/timePositionNaut miles runAvg speedWind from/ knotsBaromVisibWave heightAir tempDewpointWater temp
2016-May-31 12:28N 40°38' E 022°56'1 1.2
2016-May-31 11:33N 40°38' E 022°54'1 0.7
2016-May-31 10:34N 40°38' E 022°53'2 1.7
2016-May-31 09:33N 40°38' E 022°56'0 0.0
2016-May-31 03:32N 40°38' E 022°56'2 2.0
2016-May-31 02:33N 40°38' E 022°53'0 0.0
2016-May-31 01:33N 40°38' E 022°53'0 0.0
2016-May-31 00:33N 40°38' E 022°53'0 0.0
2016-May-30 23:33N 40°38' E 022°53'0 0.0
2016-May-30 22:34N 40°38' E 022°53'0 0.0
2016-May-30 21:34N 40°38' E 022°53'0 0.0
2016-May-30 20:33N 40°38' E 022°53'0 0.0
2016-May-30 19:33N 40°38' E 022°53'0 0.0
2016-May-30 18:33N 40°38' E 022°53'0 0.0
2016-May-30 17:33N 40°38' E 022°53'0 0.0
2016-May-30 16:34N 40°38' E 022°53'0 0.0
2016-May-30 15:33N 40°38' E 022°53'0 0.0
2016-May-30 14:33N 40°38' E 022°53'0 0.0
2016-May-30 13:33N 40°38' E 022°53'  
2016-May-24 08:33N 40°38' E 022°54'0 0.0
2016-May-24 07:33N 40°38' E 022°54'0 0.2
2016-May-24 06:33N 40°38' E 022°54'2 1.6
2016-May-24 05:33N 40°37' E 022°54'0 0.0
2016-May-24 04:34N 40°37' E 022°54'0 0.0
2016-May-24 03:34N 40°37' E 022°54'0 0.0
2016-May-24 02:33N 40°37' E 022°54'0 0.0
2016-May-24 01:34N 40°37' E 022°54'0 0.0
2016-May-24 00:34N 40°37' E 022°54'0 0.0
2016-May-23 23:34N 40°37' E 022°54'0 0.0
2016-May-23 22:33N 40°37' E 022°54'0 0.0
2016-May-23 21:33N 40°37' E 022°54'0 0.0
2016-May-23 20:33N 40°37' E 022°54'0 0.0
2016-May-23 19:33N 40°37' E 022°54'0 0.0
2016-May-23 18:33N 40°37' E 022°54'0 0.0
2016-May-23 17:33N 40°37' E 022°54'0 0.0
2016-May-23 16:34N 40°37' E 022°54'0 0.0
2016-May-23 15:34N 40°37' E 022°54'0 0.0
2016-May-23 14:33N 40°37' E 022°54'0 0.0
2016-May-23 13:33N 40°37' E 022°54'0 0.0
2016-May-23 12:33N 40°37' E 022°54'0 0.0
2016-May-23 11:34N 40°37' E 022°54'0 0.3
2016-May-23 10:34N 40°37' E 022°54'0 0.2
2016-May-23 09:33N 40°37' E 022°54'1 0.7
2016-May-23 08:33N 40°37' E 022°54'1 1.0
2016-May-23 07:33N 40°38' E 022°54'0 0.0
2016-May-23 06:33N 40°38' E 022°54'1 0.6
2016-May-23 05:33N 40°38' E 022°54'2 1.6
2016-May-23 04:33N 40°38' E 022°56'0 0.0
2016-May-23 03:33N 40°38' E 022°56'0 0.0
2016-May-22 17:33N 40°38' E 022°56'0 0.1
2016-May-22 16:33N 40°38' E 022°56'0 0.1
2016-May-22 15:33N 40°38' E 022°56'  
Track history (hours):
 
Tides and Currents Weather Stations Pressure Air Temp Water Temp Dewpoint Dewpoint Depression Visibility Wind Speed Wind Dir Waves Ship Positions

Vernicos Master

Last reported at 2016-May-31 12:28 UTC. Time now 2016-May-31 16:11 UTC.
Position N 40°38' E 022°56'.

Length 28 m; draft 3.8 m.

Type: Tug. MMSI: 240917000.

Date/timePositionNaut miles runAvg speedWind from/ knotsBaromVisibWave heightAir tempDewpointWater temp
2016-May-31 12:28N 40°38' E 022°56'1 1.2
2016-May-31 11:33N 40°38' E 022°54'1 0.7
2016-May-31 10:34N 40°38' E 022°53'2 1.7
2016-May-31 09:33N 40°38' E 022°56'0 0.0
2016-May-31 03:32N 40°38' E 022°56'2 2.0
2016-May-31 02:33N 40°38' E 022°53'0 0.0
2016-May-31 01:33N 40°38' E 022°53'0 0.0
2016-May-31 00:33N 40°38' E 022°53'0 0.0
2016-May-30 23:33N 40°38' E 022°53'0 0.0
2016-May-30 22:34N 40°38' E 022°53'0 0.0
2016-May-30 21:34N 40°38' E 022°53'0 0.0
2016-May-30 20:33N 40°38' E 022°53'0 0.0
2016-May-30 19:33N 40°38' E 022°53'0 0.0
2016-May-30 18:33N 40°38' E 022°53'0 0.0
2016-May-30 17:33N 40°38' E 022°53'0 0.0
2016-May-30 16:34N 40°38' E 022°53'0 0.0
2016-May-30 15:33N 40°38' E 022°53'0 0.0
2016-May-30 14:33N 40°38' E 022°53'0 0.0
2016-May-30 13:33N 40°38' E 022°53'  
2016-May-24 08:33N 40°38' E 022°54'0 0.0
2016-May-24 07:33N 40°38' E 022°54'0 0.2
2016-May-24 06:33N 40°38' E 022°54'2 1.6
2016-May-24 05:33N 40°37' E 022°54'0 0.0
2016-May-24 04:34N 40°37' E 022°54'0 0.0
2016-May-24 03:34N 40°37' E 022°54'0 0.0
2016-May-24 02:33N 40°37' E 022°54'0 0.0
2016-May-24 01:34N 40°37' E 022°54'0 0.0
2016-May-24 00:34N 40°37' E 022°54'0 0.0
2016-May-23 23:34N 40°37' E 022°54'0 0.0
2016-May-23 22:33N 40°37' E 022°54'0 0.0
2016-May-23 21:33N 40°37' E 022°54'0 0.0
2016-May-23 20:33N 40°37' E 022°54'0 0.0
2016-May-23 19:33N 40°37' E 022°54'0 0.0
2016-May-23 18:33N 40°37' E 022°54'0 0.0
2016-May-23 17:33N 40°37' E 022°54'0 0.0
2016-May-23 16:34N 40°37' E 022°54'0 0.0
2016-May-23 15:34N 40°37' E 022°54'0 0.0
2016-May-23 14:33N 40°37' E 022°54'0 0.0
2016-May-23 13:33N 40°37' E 022°54'0 0.0
2016-May-23 12:33N 40°37' E 022°54'0 0.0
2016-May-23 11:34N 40°37' E 022°54'0 0.3
2016-May-23 10:34N 40°37' E 022°54'0 0.2
2016-May-23 09:33N 40°37' E 022°54'1 0.7
2016-May-23 08:33N 40°37' E 022°54'1 1.0
2016-May-23 07:33N 40°38' E 022°54'0 0.0
2016-May-23 06:33N 40°38' E 022°54'1 0.6
2016-May-23 05:33N 40°38' E 022°54'2 1.6
2016-May-23 04:33N 40°38' E 022°56'0 0.0
2016-May-23 03:33N 40°38' E 022°56'0 0.0
2016-May-22 17:33N 40°38' E 022°56'0 0.1
2016-May-22 16:33N 40°38' E 022°56'0 0.1
2016-May-22 15:33N 40°38' E 022°56'  

Dump ship's entire track history